Time;durP1;ratioP1;P1;durP2;ratioP2;P2;SDS_P1;SDS_P2;PMS_P1;PMS_P2;Temp;Humidity;BMP_temperature;BMP_pressure;BME280_temperature;BME280_humidity;BME280_pressure;Samples;Min_cycle;Max_cycle;Signal;HPM_P1;HPM_P2
2022/08/21 00:02:18;;;;;;;5.27;4.77;;;;;;;;;;4984631;28;20569;-62
2022/08/21 00:04:44;;;;;;;5.40;4.33;;;;;;;;;;4988251;28;20215;-61
2022/08/21 00:07:10;;;;;;;7.03;3.90;;;;;;;;;;4986456;28;20210;-62
2022/08/21 00:09:37;;;;;;;6.23;4.50;;;;;;;;;;4987296;28;20300;-61
2022/08/21 00:12:03;;;;;;;6.87;4.00;;;;;;;;;;4986562;28;20495;-63
2022/08/21 00:14:30;;;;;;;5.23;4.20;;;;;;;;;;4988168;28;20521;-62
2022/08/21 00:16:56;;;;;;;6.47;4.60;;;;;;;;;;4987384;28;20192;-62
2022/08/21 00:19:24;;;;;;;6.90;5.50;;;;;;;;;;4988293;28;20201;-61
2022/08/21 00:21:51;;;;;;;7.47;5.07;;;;;;;;;;4987621;28;20213;-63
2022/08/21 00:24:18;;;;;;;5.23;4.67;;;;;;;;;;4971785;28;20710;-64
2022/08/21 00:26:44;;;;;;;5.23;4.40;;;;;;;;;;4986155;28;20174;-64
2022/08/21 00:29:10;;;;;;;5.70;5.07;;;;;;;;;;4989218;28;20178;-64
2022/08/21 00:31:36;;;;;;;8.03;5.13;;;;;;;;;;4988592;28;20177;-61
2022/08/21 00:34:02;;;;;;;5.47;4.70;;;;;;;;;;4970957;28;20608;-63
2022/08/21 00:36:29;;;;;;;5.60;4.90;;;;;;;;;;4970968;28;20191;-65
2022/08/21 00:38:55;;;;;;;5.17;4.67;;;;;;;;;;4970523;28;20178;-64
2022/08/21 00:41:23;;;;;;;7.57;4.90;;;;;;;;;;4989162;28;20182;-63
2022/08/21 00:43:50;;;;;;;6.07;5.47;;;;;;;;;;4990685;28;20179;-64
2022/08/21 00:46:16;;;;;;;5.90;4.90;;;;;;;;;;4988771;28;20234;-63
2022/08/21 00:48:42;;;;;;;5.37;4.57;;;;;;;;;;4986233;28;20181;-59
2022/08/21 00:51:08;;;;;;;8.03;5.77;;;;;;;;;;5000933;28;20216;-64
2022/08/21 00:53:36;;;;;;;6.70;5.20;;;;;;;;;;4992297;28;20183;-64
2022/08/21 00:56:03;;;;;;;4.90;4.30;;;;;;;;;;4988412;28;20212;-61
2022/08/21 00:58:30;;;;;;;4.93;4.47;;;;;;;;;;4984598;28;20189;-64
2022/08/21 01:00:57;;;;;;;5.33;4.83;;;;;;;;;;4982277;28;20184;-64
2022/08/21 01:03:25;;;;;;;6.63;4.43;;;;;;;;;;4969246;28;20194;-62
2022/08/21 01:05:51;;;;;;;5.73;4.77;;;;;;;;;;4978287;28;20701;-62
2022/08/21 01:08:17;;;;;;;6.53;4.80;;;;;;;;;;4984189;28;20194;-59
2022/08/21 01:10:44;;;;;;;5.63;4.40;;;;;;;;;;4985500;28;20725;-65
2022/08/21 01:13:12;;;;;;;8.47;5.07;;;;;;;;;;4983525;28;20183;-65
2022/08/21 01:15:40;;;;;;;5.73;5.30;;;;;;;;;;4984307;28;20554;-64
2022/08/21 01:18:08;;;;;;;6.37;5.00;;;;;;;;;;4971823;28;20195;-61
2022/08/21 01:20:35;;;;;;;6.13;4.77;;;;;;;;;;4989842;28;20190;-65
2022/08/21 01:23:02;;;;;;;5.70;4.67;;;;;;;;;;4981575;28;20673;-65
2022/08/21 01:25:29;;;;;;;9.53;5.80;;;;;;;;;;5002408;28;20708;-64
2022/08/21 01:27:55;;;;;;;8.70;6.33;;;;;;;;;;4991472;28;20183;-65
2022/08/21 01:30:24;;;;;;;11.83;10.73;;;;;;;;;;4978977;28;20183;-64
2022/08/21 01:32:50;;;;;;;6.57;5.30;;;;;;;;;;4979123;28;20189;-64
2022/08/21 01:35:18;;;;;;;10.73;6.03;;;;;;;;;;4992548;28;20191;-62
2022/08/21 01:37:44;;;;;;;7.50;5.83;;;;;;;;;;4977296;28;20186;-62
2022/08/21 01:40:10;;;;;;;6.07;5.57;;;;;;;;;;4989130;28;20564;-59
2022/08/21 01:42:37;;;;;;;7.93;5.60;;;;;;;;;;4989929;28;20187;-61
2022/08/21 01:45:04;;;;;;;6.83;5.83;;;;;;;;;;4992243;28;20506;-62
2022/08/21 01:47:30;;;;;;;8.27;5.80;;;;;;;;;;4994572;28;20191;-61
2022/08/21 01:49:56;;;;;;;6.10;5.20;;;;;;;;;;4998393;28;20190;-64
2022/08/21 01:52:23;;;;;;;7.93;5.77;;;;;;;;;;4988793;28;20191;-63
2022/08/21 01:54:49;;;;;;;7.23;6.47;;;;;;;;;;4990207;28;20309;-63
2022/08/21 01:57:15;;;;;;;8.37;5.53;;;;;;;;;;4989929;28;20199;-62
2022/08/21 01:59:41;;;;;;;9.67;5.80;;;;;;;;;;4990473;28;20214;-62
2022/08/21 02:02:07;;;;;;;6.53;5.93;;;;;;;;;;4989141;28;20187;-62
2022/08/21 02:04:33;;;;;;;7.30;5.97;;;;;;;;;;4989813;28;20218;-61
2022/08/21 02:07:00;;;;;;;7.60;5.77;;;;;;;;;;5011668;28;20185;-63
2022/08/21 02:09:26;;;;;;;6.17;5.20;;;;;;;;;;4996527;28;20183;-62
2022/08/21 02:11:53;;;;;;;6.87;5.40;;;;;;;;;;4990298;28;20186;-63
2022/08/21 02:14:19;;;;;;;6.40;5.80;;;;;;;;;;4989706;28;20600;-63
2022/08/21 02:16:45;;;;;;;7.63;6.40;;;;;;;;;;4989591;28;20270;-63
2022/08/21 02:19:12;;;;;;;5.70;5.20;;;;;;;;;;4986261;28;20653;-61
2022/08/21 02:21:39;;;;;;;6.13;5.57;;;;;;;;;;4987748;28;20187;-62
2022/08/21 02:24:05;;;;;;;7.67;5.40;;;;;;;;;;4988143;28;20183;-62
2022/08/21 02:26:31;;;;;;;6.57;5.97;;;;;;;;;;4973786;28;20186;-63
2022/08/21 02:28:57;;;;;;;5.47;4.97;;;;;;;;;;4992697;28;20606;-59
2022/08/21 02:31:24;;;;;;;6.33;5.70;;;;;;;;;;4988485;28;20638;-63
2022/08/21 02:33:50;;;;;;;7.53;6.07;;;;;;;;;;4984962;28;20553;-62
2022/08/21 02:36:16;;;;;;;6.77;6.20;;;;;;;;;;4982091;28;20182;-62
2022/08/21 02:38:43;;;;;;;10.67;6.43;;;;;;;;;;4988549;28;20250;-62
2022/08/21 02:41:14;;;;;;;6.67;6.07;;;;;;;;;;4989977;28;20183;-61
2022/08/21 02:43:40;;;;;;;7.83;6.00;;;;;;;;;;4988603;28;20197;-61
2022/08/21 02:46:07;;;;;;;7.27;6.57;;;;;;;;;;5004086;28;20230;-62
2022/08/21 02:48:33;;;;;;;6.83;5.67;;;;;;;;;;4989334;28;20195;-62
2022/08/21 02:51:01;;;;;;;8.27;5.67;;;;;;;;;;4989239;28;20601;-62
2022/08/21 02:53:28;;;;;;;8.17;6.33;;;;;;;;;;4988529;28;20712;-62
2022/08/21 02:55:55;;;;;;;7.10;5.73;;;;;;;;;;4989955;28;20179;-62
2022/08/21 02:58:24;;;;;;;6.37;5.77;;;;;;;;;;4989221;28;20191;-62
2022/08/21 03:00:51;;;;;;;7.60;6.00;;;;;;;;;;4976176;28;20218;-62
2022/08/21 03:03:17;;;;;;;6.63;5.87;;;;;;;;;;4988683;28;20638;-63
2022/08/21 03:05:44;;;;;;;6.47;5.77;;;;;;;;;;4988251;28;20218;-62
2022/08/21 03:08:11;;;;;;;6.37;5.87;;;;;;;;;;4989066;28;20175;-61
2022/08/21 03:10:39;;;;;;;8.00;6.00;;;;;;;;;;4988117;28;20382;-63
2022/08/21 03:13:05;;;;;;;7.87;6.10;;;;;;;;;;4989324;28;20182;-61
2022/08/21 03:15:32;;;;;;;7.50;6.43;;;;;;;;;;4978423;28;20560;-62
2022/08/21 03:17:58;;;;;;;7.13;6.10;;;;;;;;;;4988108;28;20548;-62
2022/08/21 03:20:26;;;;;;;9.70;6.70;;;;;;;;;;4986289;28;20555;-60
2022/08/21 03:22:53;;;;;;;6.80;5.37;;;;;;;;;;4970288;28;20195;-61
2022/08/21 03:25:20;;;;;;;7.10;6.47;;;;;;;;;;4989346;28;20563;-61
2022/08/21 03:27:48;;;;;;;8.77;5.93;;;;;;;;;;4988859;28;20185;-59
2022/08/21 03:30:14;;;;;;;6.83;6.23;;;;;;;;;;4969641;28;20694;-62
2022/08/21 03:32:41;;;;;;;7.10;6.40;;;;;;;;;;4994201;28;20249;-63
2022/08/21 03:35:07;;;;;;;7.93;6.63;;;;;;;;;;4986752;28;20673;-62
2022/08/21 03:37:33;;;;;;;7.30;6.57;;;;;;;;;;4987767;28;20171;-62
2022/08/21 03:40:00;;;;;;;7.20;6.50;;;;;;;;;;4993091;28;20185;-61
2022/08/21 03:42:26;;;;;;;9.33;6.93;;;;;;;;;;4988719;28;20264;-62
2022/08/21 03:45:04;;;;;;;7.17;6.53;;;;;;;;;;4989012;28;20211;-62
2022/08/21 03:47:30;;;;;;;9.87;6.50;;;;;;;;;;4968704;28;20212;-63
2022/08/21 03:49:56;;;;;;;8.50;6.83;;;;;;;;;;4950631;28;20251;-62
2022/08/21 03:52:23;;;;;;;9.13;7.37;;;;;;;;;;4957055;28;20177;-62
2022/08/21 03:54:50;;;;;;;7.97;7.20;;;;;;;;;;4967555;28;20192;-63
2022/08/21 03:57:16;;;;;;;8.57;6.37;;;;;;;;;;4968351;28;20186;-59
2022/08/21 03:59:43;;;;;;;8.87;6.80;;;;;;;;;;4970935;28;20186;-62
2022/08/21 04:02:10;;;;;;;13.57;11.73;;;;;;;;;;4970789;28;20180;-63
2022/08/21 04:04:36;;;;;;;10.23;7.43;;;;;;;;;;4969804;28;20235;-61
2022/08/21 04:07:03;;;;;;;6.57;5.80;;;;;;;;;;4969717;28;20238;-62
2022/08/21 04:09:30;;;;;;;8.20;6.20;;;;;;;;;;4968144;28;20548;-62
2022/08/21 04:11:56;;;;;;;9.20;6.90;;;;;;;;;;4969087;28;20180;-61
2022/08/21 04:14:22;;;;;;;8.57;7.20;;;;;;;;;;4942106;28;20541;-62
2022/08/21 04:16:49;;;;;;;7.33;6.73;;;;;;;;;;4952112;28;20203;-63
2022/08/21 04:19:15;;;;;;;8.90;7.47;;;;;;;;;;4968095;28;20211;-62
2022/08/21 04:21:41;;;;;;;7.60;7.00;;;;;;;;;;4962093;28;20199;-62
2022/08/21 04:24:09;;;;;;;11.30;8.20;;;;;;;;;;4979646;28;20180;-63
2022/08/21 04:26:35;;;;;;;7.97;7.07;;;;;;;;;;4968081;28;20188;-62
2022/08/21 04:29:02;;;;;;;9.97;7.57;;;;;;;;;;4965149;28;20183;-61
2022/08/21 04:31:28;;;;;;;8.63;7.73;;;;;;;;;;4968601;28;20541;-61
2022/08/21 04:33:54;;;;;;;9.77;7.30;;;;;;;;;;4967209;28;20673;-63
2022/08/21 04:36:20;;;;;;;9.30;8.40;;;;;;;;;;4967804;28;20603;-63
2022/08/21 04:38:47;;;;;;;11.60;8.83;;;;;;;;;;4964018;28;20190;-62
2022/08/21 04:41:13;;;;;;;7.80;7.10;;;;;;;;;;4965201;28;20241;-62
2022/08/21 04:43:39;;;;;;;8.67;7.90;;;;;;;;;;4965414;28;20332;-62
2022/08/21 04:46:05;;;;;;;9.77;8.80;;;;;;;;;;4978927;28;20277;-62
2022/08/21 04:48:32;;;;;;;12.60;7.77;;;;;;;;;;4981909;28;20198;-62
2022/08/21 04:51:17;;;;;;;8.50;7.70;;;;;;;;;;4987419;28;20705;-62
2022/08/21 04:53:46;;;;;;;8.27;7.57;;;;;;;;;;4990929;28;20183;-63
2022/08/21 04:56:13;;;;;;;9.87;7.70;;;;;;;;;;4988609;28;20182;-60
2022/08/21 04:58:41;;;;;;;10.33;8.00;;;;;;;;;;4987855;28;20214;-63
2022/08/21 05:01:09;;;;;;;11.53;8.83;;;;;;;;;;4978032;28;20197;-62
2022/08/21 05:03:36;;;;;;;12.10;8.97;;;;;;;;;;4970746;28;20557;-62
2022/08/21 05:06:05;;;;;;;11.07;9.97;;;;;;;;;;4988471;28;20701;-63
2022/08/21 05:08:32;;;;;;;10.47;9.37;;;;;;;;;;4975109;28;20785;-62
2022/08/21 05:10:58;;;;;;;10.77;9.67;;;;;;;;;;4986767;28;20179;-63
2022/08/21 05:13:24;;;;;;;10.57;9.57;;;;;;;;;;4977398;28;20190;-61
2022/08/21 05:15:50;;;;;;;12.57;9.63;;;;;;;;;;4987513;28;20191;-62
2022/08/21 05:18:16;;;;;;;10.47;9.50;;;;;;;;;;4986630;28;20186;-60
2022/08/21 05:20:44;;;;;;;12.97;10.13;;;;;;;;;;4986307;28;20568;-61
2022/08/21 05:23:12;;;;;;;11.37;10.27;;;;;;;;;;4991728;28;20835;-62
2022/08/21 05:25:38;;;;;;;10.07;9.17;;;;;;;;;;4970598;28;20202;-59
2022/08/21 05:28:05;;;;;;;9.90;8.90;;;;;;;;;;4987242;28;20183;-62
2022/08/21 05:30:31;;;;;;;12.37;9.77;;;;;;;;;;4986542;28;20183;-64
2022/08/21 05:32:58;;;;;;;13.10;9.53;;;;;;;;;;4987876;28;20182;-61
2022/08/21 05:35:25;;;;;;;8.93;8.07;;;;;;;;;;4987398;28;20187;-63
2022/08/21 05:37:51;;;;;;;10.43;8.87;;;;;;;;;;4978528;28;20198;-63
2022/08/21 05:40:18;;;;;;;11.53;8.93;;;;;;;;;;4987539;28;20199;-62
2022/08/21 05:42:44;;;;;;;9.90;8.60;;;;;;;;;;4986624;28;20199;-62
2022/08/21 05:45:10;;;;;;;14.40;10.27;;;;;;;;;;4973867;28;20665;-62
2022/08/21 05:47:37;;;;;;;10.80;9.63;;;;;;;;;;4969673;28;20254;-64
2022/08/21 05:50:03;;;;;;;9.70;8.73;;;;;;;;;;4989182;28;20179;-61
2022/08/21 05:52:30;;;;;;;14.67;9.40;;;;;;;;;;4983297;28;20270;-62
2022/08/21 05:54:56;;;;;;;13.97;9.50;;;;;;;;;;4984340;28;20645;-62
2022/08/21 05:57:22;;;;;;;9.83;9.03;;;;;;;;;;4969221;28;20604;-62
2022/08/21 05:59:48;;;;;;;11.00;9.90;;;;;;;;;;4992230;28;20194;-62
2022/08/21 06:02:14;;;;;;;12.57;9.13;;;;;;;;;;4997579;28;20188;-62
2022/08/21 06:04:41;;;;;;;10.73;9.73;;;;;;;;;;4991619;28;20620;-60
2022/08/21 06:07:08;;;;;;;11.77;10.70;;;;;;;;;;4973004;28;20458;-60
2022/08/21 06:09:34;;;;;;;11.37;10.20;;;;;;;;;;4999532;28;20382;-62
2022/08/21 06:12:04;;;;;;;10.30;9.40;;;;;;;;;;5005961;28;20179;-63
2022/08/21 06:14:30;;;;;;;10.23;9.20;;;;;;;;;;4994429;28;20186;-62
2022/08/21 06:17:02;;;;;;;10.43;9.43;;;;;;;;;;4983250;28;20314;-62
2022/08/21 06:19:28;;;;;;;9.83;8.87;;;;;;;;;;4996763;28;20205;-62
2022/08/21 06:21:54;;;;;;;14.40;9.43;;;;;;;;;;4993233;28;20179;-62
2022/08/21 06:24:21;;;;;;;11.90;8.40;;;;;;;;;;4995812;28;20338;-63
2022/08/21 06:26:47;;;;;;;9.10;8.30;;;;;;;;;;4983658;28;20183;-64
2022/08/21 06:29:16;;;;;;;11.00;7.73;;;;;;;;;;4987524;28;21032;-63
2022/08/21 06:31:43;;;;;;;7.30;6.60;;;;;;;;;;4991614;28;20742;-62
2022/08/21 06:34:09;;;;;;;12.50;7.03;;;;;;;;;;4973284;28;20183;-62
2022/08/21 06:36:35;;;;;;;9.10;5.73;;;;;;;;;;5001065;28;20661;-61
2022/08/21 06:39:01;;;;;;;6.67;5.43;;;;;;;;;;4991971;28;20183;-61
2022/08/21 06:41:28;;;;;;;9.90;6.10;;;;;;;;;;4993552;28;20249;-63
2022/08/21 06:43:55;;;;;;;10.10;6.07;;;;;;;;;;4972593;28;20703;-62
2022/08/21 06:46:21;;;;;;;8.53;5.53;;;;;;;;;;4967040;28;20231;-61
2022/08/21 06:48:47;;;;;;;9.87;5.97;;;;;;;;;;4973359;28;20187;-62
2022/08/21 06:51:14;;;;;;;7.43;6.13;;;;;;;;;;4989954;28;20179;-61
2022/08/21 06:53:40;;;;;;;7.03;6.03;;;;;;;;;;4973383;28;20694;-63
2022/08/21 06:56:06;;;;;;;7.23;4.90;;;;;;;;;;4986003;28;20762;-61
2022/08/21 06:58:32;;;;;;;10.00;4.97;;;;;;;;;;4985586;28;20187;-62
2022/08/21 07:00:58;;;;;;;9.60;5.53;;;;;;;;;;4993184;28;20180;-62
2022/08/21 07:03:27;;;;;;;6.93;4.83;;;;;;;;;;4983463;28;20187;-61
2022/08/21 07:05:54;;;;;;;7.77;5.97;;;;;;;;;;4988954;28;20685;-60
2022/08/21 07:08:21;;;;;;;12.03;5.63;;;;;;;;;;4971974;28;20179;-61
2022/08/21 07:10:49;;;;;;;7.13;5.10;;;;;;;;;;4972066;28;20229;-61
2022/08/21 07:13:15;;;;;;;7.67;5.00;;;;;;;;;;4988082;28;20402;-60
2022/08/21 07:15:41;;;;;;;6.53;4.47;;;;;;;;;;4970403;28;20313;-61
2022/08/21 07:18:08;;;;;;;14.20;5.00;;;;;;;;;;4988274;28;20183;-61
2022/08/21 07:20:34;;;;;;;10.40;5.83;;;;;;;;;;4987295;28;20179;-60
2022/08/21 07:23:01;;;;;;;6.63;5.40;;;;;;;;;;4966114;28;20190;-61
2022/08/21 07:25:27;;;;;;;7.00;5.23;;;;;;;;;;4988134;28;20681;-62
2022/08/21 07:27:54;;;;;;;11.70;5.23;;;;;;;;;;4989052;28;20712;-62
2022/08/21 07:30:20;;;;;;;5.67;4.60;;;;;;;;;;4985234;28;20285;-61
2022/08/21 07:32:49;;;;;;;7.37;5.43;;;;;;;;;;4987949;28;20228;-60
2022/08/21 07:35:15;;;;;;;7.20;5.30;;;;;;;;;;4988797;28;20187;-62
2022/08/21 07:37:41;;;;;;;5.47;4.50;;;;;;;;;;4964258;28;20268;-64
2022/08/21 07:40:07;;;;;;;6.43;4.20;;;;;;;;;;4987580;28;20168;-63
2022/08/21 07:42:33;;;;;;;7.60;4.83;;;;;;;;;;4973650;28;20929;-60
2022/08/21 07:44:59;;;;;;;4.93;3.77;;;;;;;;;;4996044;28;20566;-60
2022/08/21 07:47:26;;;;;;;5.03;4.00;;;;;;;;;;4987998;28;20222;-61
2022/08/21 07:49:52;;;;;;;5.57;4.33;;;;;;;;;;4968969;28;20187;-65
2022/08/21 07:52:19;;;;;;;7.23;4.67;;;;;;;;;;4982133;28;20188;-62
2022/08/21 07:54:45;;;;;;;4.63;4.23;;;;;;;;;;4971528;28;20179;-62
2022/08/21 07:57:11;;;;;;;7.17;4.57;;;;;;;;;;4988274;28;20187;-60
2022/08/21 07:59:38;;;;;;;6.70;4.50;;;;;;;;;;4987393;28;20183;-62
2022/08/21 08:02:04;;;;;;;5.87;4.07;;;;;;;;;;4965344;28;20187;-63
2022/08/21 08:04:30;;;;;;;7.43;3.70;;;;;;;;;;4996611;28;20210;-60
2022/08/21 08:06:56;;;;;;;5.27;3.77;;;;;;;;;;4990730;28;20209;-60
2022/08/21 08:09:22;;;;;;;4.10;3.33;;;;;;;;;;4981781;28;20190;-58
2022/08/21 08:11:48;;;;;;;6.63;3.97;;;;;;;;;;4988858;28;20188;-59
2022/08/21 08:14:15;;;;;;;5.93;3.40;;;;;;;;;;4989306;28;20910;-58
2022/08/21 08:16:41;;;;;;;6.10;3.97;;;;;;;;;;4987321;28;20245;-59
2022/08/21 08:19:07;;;;;;;5.53;4.23;;;;;;;;;;4984015;28;20198;-59
2022/08/21 08:21:38;;;;;;;5.93;5.33;;;;;;;;;;4986665;28;20585;-59
2022/08/21 08:24:04;;;;;;;5.23;4.03;;;;;;;;;;4986774;28;20179;-58
2022/08/21 08:26:30;;;;;;;3.67;3.37;;;;;;;;;;4985106;28;20261;-58
2022/08/21 08:28:56;;;;;;;4.30;3.30;;;;;;;;;;4983306;28;20264;-59
2022/08/21 08:31:23;;;;;;;5.80;3.17;;;;;;;;;;4985094;28;20183;-59
2022/08/21 08:33:49;;;;;;;5.67;3.53;;;;;;;;;;4985952;28;20182;-59
2022/08/21 08:36:17;;;;;;;7.07;3.50;;;;;;;;;;4985473;28;20184;-59
2022/08/21 08:38:43;;;;;;;4.57;4.10;;;;;;;;;;4984502;28;20661;-59
2022/08/21 08:41:10;;;;;;;3.77;3.47;;;;;;;;;;4986169;28;20192;-59
2022/08/21 08:43:36;;;;;;;4.78;3.88;;;;;;;;;;4979028;28;20195;-59
2022/08/21 08:46:04;;;;;;;4.80;3.75;;;;;;;;;;4984455;28;20231;-58
2022/08/21 08:48:49;;;;;;;4.80;3.40;;;;;;;;;;4984900;28;20187;-59
2022/08/21 08:51:41;;;;;;;3.65;3.35;;;;;;;;;;4981464;28;20184;-58
2022/08/21 08:54:13;;;;;;;4.82;4.18;;;;;;;;;;4981473;28;20195;-57
2022/08/21 08:56:40;;;;;;;4.35;3.67;;;;;;;;;;4981107;28;20553;-59
2022/08/21 08:59:27;;;;;;;4.38;3.72;;;;;;;;;;4978642;28;20858;-58
2022/08/21 09:01:54;;;;;;;3.92;3.50;;;;;;;;;;4980717;28;20770;-58
2022/08/21 09:04:25;;;;;;;3.65;3.35;;;;;;;;;;4979496;28;20178;-59
2022/08/21 09:07:10;;;;;;;4.13;3.65;;;;;;;;;;4976498;28;20241;-57
2022/08/21 09:09:54;;;;;;;3.83;3.33;;;;;;;;;;4986050;28;20179;-58
2022/08/21 09:12:39;;;;;;;4.80;3.63;;;;;;;;;;4983463;28;20748;-59
2022/08/21 09:15:11;;;;;;;4.07;3.25;;;;;;;;;;4974448;28;20183;-59
2022/08/21 09:17:56;;;;;;;4.03;3.67;;;;;;;;;;4998217;28;20187;-58
2022/08/21 09:20:28;;;;;;;3.90;3.60;;;;;;;;;;4982752;28;20578;-59
2022/08/21 09:23:09;;;;;;;4.97;3.70;;;;;;;;;;4979405;28;20186;-59
2022/08/21 09:25:42;;;;;;;4.70;3.72;;;;;;;;;;4988452;28;20206;-58
2022/08/21 09:28:12;;;;;;;5.00;3.85;;;;;;;;;;4986671;28;20171;-60
2022/08/21 09:30:44;;;;;;;4.47;4.05;;;;;;;;;;4985720;28;20213;-60
2022/08/21 09:33:12;;;;;;;3.75;3.28;;;;;;;;;;4968898;28;20175;-59
2022/08/21 09:35:48;;;;;;;4.95;3.70;;;;;;;;;;4987127;28;20241;-58
2022/08/21 09:38:24;;;;;;;4.93;3.95;;;;;;;;;;4984712;28;20649;-58
2022/08/21 09:41:03;;;;;;;4.97;4.47;;;;;;;;;;4986117;28;20260;-59
2022/08/21 09:43:30;;;;;;;3.23;3.00;;;;;;;;;;4987477;28;20193;-58
2022/08/21 09:46:25;;;;;;;3.97;3.23;;;;;;;;;;4987822;28;20684;-58
2022/08/21 09:48:53;;;;;;;4.33;3.50;;;;;;;;;;4974002;28;20203;-58
2022/08/21 09:51:21;;;;;;;3.57;3.27;;;;;;;;;;4984572;28;20240;-59
2022/08/21 09:53:49;;;;;;;5.20;3.67;;;;;;;;;;4991268;28;20184;-58
2022/08/21 09:59:20;;;;;;;3.43;3.13;;;;;;;;;;4984648;28;20247;-58
2022/08/21 10:01:48;;;;;;;4.87;3.53;;;;;;;;;;4991604;28;20177;-58
2022/08/21 10:04:15;;;;;;;3.63;3.33;;;;;;;;;;4989958;28;20722;-57
2022/08/21 10:06:41;;;;;;;4.20;3.87;;;;;;;;;;4990534;28;20429;-58
2022/08/21 10:09:12;;;;;;;4.67;3.50;;;;;;;;;;4990669;28;20195;-57
2022/08/21 10:11:39;;;;;;;4.43;4.00;;;;;;;;;;4991746;28;20635;-58
2022/08/21 10:14:14;;;;;;;4.00;3.63;;;;;;;;;;4989529;28;20184;-57
2022/08/21 10:16:40;;;;;;;4.37;3.10;;;;;;;;;;4987419;28;20599;-58
2022/08/21 10:19:15;;;;;;;4.73;3.80;;;;;;;;;;4976824;28;20702;-57
2022/08/21 10:21:44;;;;;;;4.57;3.10;;;;;;;;;;4980552;28;20197;-57
2022/08/21 10:24:25;;;;;;;3.40;3.03;;;;;;;;;;4999815;28;20224;-58
2022/08/21 10:27:01;;;;;;;4.57;3.60;;;;;;;;;;4973000;28;20641;-58
2022/08/21 10:29:46;;;;;;;3.47;3.13;;;;;;;;;;4984539;28;20270;-57
2022/08/21 10:32:30;;;;;;;3.37;2.90;;;;;;;;;;4990803;28;20173;-58
2022/08/21 10:34:56;;;;;;;3.33;3.03;;;;;;;;;;4980764;28;20234;-59
2022/08/21 10:37:22;;;;;;;4.20;3.57;;;;;;;;;;4984761;28;20264;-57
2022/08/21 10:39:54;;;;;;;4.60;3.27;;;;;;;;;;4989196;28;20713;-58
2022/08/21 10:42:36;;;;;;;4.00;3.70;;;;;;;;;;4988680;28;20181;-54
2022/08/21 10:45:08;;;;;;;3.27;3.07;;;;;;;;;;4984556;28;20206;-53
2022/08/21 10:47:36;;;;;;;4.37;3.70;;;;;;;;;;4989225;28;20329;-58
2022/08/21 10:50:08;;;;;;;3.97;3.57;;;;;;;;;;4988940;28;20187;-57
2022/08/21 10:52:34;;;;;;;4.73;3.67;;;;;;;;;;5002667;28;20183;-62
2022/08/21 10:55:03;;;;;;;4.37;4.07;;;;;;;;;;4985795;28;20205;-59
2022/08/21 10:57:32;;;;;;;4.63;3.70;;;;;;;;;;4965047;28;20617;-58
2022/08/21 11:00:11;;;;;;;4.23;3.40;;;;;;;;;;4987545;28;20201;-57
2022/08/21 11:02:45;;;;;;;3.87;3.57;;;;;;;;;;4989490;28;20580;-58
2022/08/21 11:05:17;;;;;;;4.00;3.37;;;;;;;;;;4986737;28;20514;-59
2022/08/21 11:07:46;;;;;;;3.77;3.40;;;;;;;;;;4985891;28;20185;-58
2022/08/21 11:10:25;;;;;;;4.37;4.03;;;;;;;;;;4999598;28;20280;-58
2022/08/21 11:12:53;;;;;;;6.40;4.17;;;;;;;;;;4988208;28;20232;-59
2022/08/21 11:15:41;;;;;;;4.10;3.80;;;;;;;;;;4970661;28;20229;-58
2022/08/21 11:18:22;;;;;;;5.00;3.47;;;;;;;;;;4987313;28;20603;-57
2022/08/21 11:21:01;;;;;;;3.90;3.43;;;;;;;;;;4983575;28;20646;-58
2022/08/21 11:23:45;;;;;;;3.83;3.50;;;;;;;;;;4988269;28;20214;-57
2022/08/21 11:26:18;;;;;;;4.03;3.27;;;;;;;;;;4987628;28;20220;-58
2022/08/21 11:28:50;;;;;;;5.37;3.60;;;;;;;;;;4986126;28;20642;-57
2022/08/21 11:31:23;;;;;;;3.70;3.03;;;;;;;;;;4970371;28;20185;-57
2022/08/21 11:34:08;;;;;;;4.07;3.40;;;;;;;;;;4989347;28;20181;-57
2022/08/21 11:36:44;;;;;;;3.80;3.50;;;;;;;;;;4963750;28;20194;-57
2022/08/21 11:39:29;;;;;;;5.93;3.50;;;;;;;;;;4967027;28;20188;-57
2022/08/21 11:42:02;;;;;;;4.00;3.60;;;;;;;;;;4987779;28;20242;-57
2022/08/21 11:44:49;;;;;;;6.57;3.90;;;;;;;;;;4980215;28;21032;-57
2022/08/21 11:47:21;;;;;;;3.60;3.37;;;;;;;;;;4986694;28;20299;-57
2022/08/21 11:49:54;;;;;;;3.87;3.53;;;;;;;;;;4972819;28;20249;-58
2022/08/21 11:52:28;;;;;;;3.43;3.13;;;;;;;;;;4968789;28;20214;-57
2022/08/21 11:55:15;;;;;;;3.97;3.30;;;;;;;;;;4969865;28;20659;-59
2022/08/21 11:58:01;;;;;;;5.33;4.83;;;;;;;;;;4985473;28;20179;-57
2022/08/21 12:00:31;;;;;;;4.40;3.20;;;;;;;;;;4974946;28;20228;-58
2022/08/21 12:03:00;;;;;;;3.23;2.93;;;;;;;;;;4963414;28;20242;-58
2022/08/21 12:05:34;;;;;;;4.20;3.80;;;;;;;;;;4986742;28;20211;-57
2022/08/21 12:08:06;;;;;;;7.27;3.90;;;;;;;;;;4968758;28;20288;-56
2022/08/21 12:10:34;;;;;;;5.83;3.00;;;;;;;;;;4988737;28;20180;-58
2022/08/21 12:13:23;;;;;;;4.53;3.30;;;;;;;;;;4985845;28;20435;-58
2022/08/21 12:15:50;;;;;;;3.57;3.27;;;;;;;;;;4969196;28;20198;-59
2022/08/21 12:18:22;;;;;;;6.30;3.43;;;;;;;;;;4985505;28;20191;-57
2022/08/21 12:21:08;;;;;;;5.20;3.77;;;;;;;;;;4973059;28;20187;-58
2022/08/21 12:23:44;;;;;;;3.93;3.50;;;;;;;;;;4984708;28;20590;-55
2022/08/21 12:26:18;;;;;;;4.40;4.00;;;;;;;;;;4958873;28;20195;-56
2022/08/21 12:28:44;;;;;;;4.23;3.77;;;;;;;;;;4970387;28;20325;-58
2022/08/21 12:31:26;;;;;;;5.00;4.00;;;;;;;;;;4966438;28;20179;-57
2022/08/21 12:33:56;;;;;;;5.63;3.87;;;;;;;;;;4982924;28;20568;-57
2022/08/21 12:36:25;;;;;;;5.43;4.27;;;;;;;;;;4982254;28;20188;-56
2022/08/21 12:39:13;;;;;;;5.77;4.13;;;;;;;;;;4981832;28;20281;-56
2022/08/21 12:41:46;;;;;;;4.30;3.10;;;;;;;;;;4982292;28;20184;-56
2022/08/21 12:44:21;;;;;;;4.00;3.40;;;;;;;;;;4967554;28;20452;-57
2022/08/21 12:47:23;;;;;;;4.10;3.50;;;;;;;;;;4968448;28;20277;-56
2022/08/21 12:50:15;;;;;;;5.83;3.40;;;;;;;;;;4917848;29;20571;-56
2022/08/21 12:52:45;;;;;;;4.40;4.00;;;;;;;;;;4946714;28;20708;-56
2022/08/21 12:55:26;;;;;;;3.47;3.17;;;;;;;;;;4983628;28;20222;-56
2022/08/21 12:57:52;;;;;;;4.97;3.30;;;;;;;;;;4984578;28;20194;-56
2022/08/21 13:00:21;;;;;;;5.13;3.53;;;;;;;;;;4968042;28;20229;-56
2022/08/21 13:02:56;;;;;;;3.03;2.83;;;;;;;;;;4981696;28;20179;-56
2022/08/21 13:05:33;;;;;;;2.90;2.70;;;;;;;;;;4982120;28;20206;-56
2022/08/21 13:08:04;;;;;;;3.17;2.87;;;;;;;;;;4977752;28;20657;-56
2022/08/21 13:10:31;;;;;;;3.40;2.63;;;;;;;;;;4981992;28;20215;-56
2022/08/21 13:12:59;;;;;;;3.30;3.00;;;;;;;;;;4985464;28;20184;-57
2022/08/21 13:15:29;;;;;;;4.10;3.33;;;;;;;;;;4983860;28;20237;-58
2022/08/21 13:18:01;;;;;;;4.97;3.03;;;;;;;;;;4984633;28;20797;-57
2022/08/21 13:20:29;;;;;;;3.53;3.27;;;;;;;;;;4985227;28;20446;-57
2022/08/21 13:22:55;;;;;;;3.57;3.10;;;;;;;;;;4968230;28;20276;-58
2022/08/21 13:25:25;;;;;;;4.07;3.20;;;;;;;;;;4968157;28;20236;-58
2022/08/21 13:27:59;;;;;;;7.50;3.27;;;;;;;;;;4986071;28;20660;-58
2022/08/21 13:30:26;;;;;;;3.80;2.60;;;;;;;;;;4980209;28;20598;-57
2022/08/21 13:32:56;;;;;;;3.90;3.00;;;;;;;;;;4979533;28;20189;-59
2022/08/21 13:35:35;;;;;;;3.30;3.10;;;;;;;;;;4969721;28;20188;-58
2022/08/21 13:38:02;;;;;;;2.73;2.53;;;;;;;;;;4968385;28;20196;-57
2022/08/21 13:40:51;;;;;;;3.60;2.90;;;;;;;;;;4988120;28;20209;-58
2022/08/21 13:43:19;;;;;;;3.67;3.23;;;;;;;;;;4976262;28;20205;-58
2022/08/21 13:45:50;;;;;;;5.63;3.60;;;;;;;;;;4984878;28;20198;-58
2022/08/21 13:48:31;;;;;;;5.27;3.40;;;;;;;;;;4686770;28;8103031;-58
2022/08/21 13:50:58;;;;;;;4.57;2.90;;;;;;;;;;4985884;28;20182;-57
2022/08/21 13:53:29;;;;;;;3.80;3.07;;;;;;;;;;4986417;28;20187;-58
2022/08/21 13:55:55;;;;;;;3.53;3.23;;;;;;;;;;4985939;28;20179;-57
2022/08/21 13:58:25;;;;;;;4.13;3.10;;;;;;;;;;4987106;28;20623;-57
2022/08/21 14:00:52;;;;;;;2.80;2.60;;;;;;;;;;4982095;28;20635;-57
2022/08/21 14:03:31;;;;;;;6.60;6.20;;;;;;;;;;4984989;28;20176;-58
2022/08/21 14:05:57;;;;;;;3.53;2.93;;;;;;;;;;4984324;28;20215;-57
2022/08/21 14:08:30;;;;;;;3.30;3.00;;;;;;;;;;4983960;28;20202;-58
2022/08/21 14:10:56;;;;;;;3.07;2.77;;;;;;;;;;4985212;28;20210;-57
2022/08/21 14:13:28;;;;;;;3.67;2.90;;;;;;;;;;4983466;28;20232;-59
2022/08/21 14:15:55;;;;;;;3.03;2.80;;;;;;;;;;4967594;28;20672;-58
2022/08/21 14:18:21;;;;;;;3.13;2.60;;;;;;;;;;4984471;28;20187;-57
2022/08/21 14:20:47;;;;;;;3.50;2.70;;;;;;;;;;4985276;28;20286;-57
2022/08/21 14:23:24;;;;;;;7.45;6.72;;;;;;;;;;4985817;28;20685;-57
2022/08/21 14:25:50;;;;;;;3.50;2.40;;;;;;;;;;4990698;28;20756;-58
2022/08/21 14:28:45;;;;;;;3.33;2.90;;;;;;;;;;4990026;28;20183;-57
2022/08/21 14:31:21;;;;;;;3.67;3.38;;;;;;;;;;4973047;28;20195;-57
2022/08/21 14:33:48;;;;;;;3.33;2.72;;;;;;;;;;4997184;28;20656;-57
2022/08/21 14:36:14;;;;;;;3.00;2.70;;;;;;;;;;4986453;28;20532;-58
2022/08/21 14:38:41;;;;;;;3.10;2.80;;;;;;;;;;4996891;28;20187;-57
2022/08/21 14:41:27;;;;;;;3.72;3.10;;;;;;;;;;4990437;28;20190;-58
2022/08/21 14:43:54;;;;;;;3.10;2.90;;;;;;;;;;4969804;28;20233;-57
2022/08/21 14:46:23;;;;;;;3.28;2.90;;;;;;;;;;4974032;28;20218;-57
2022/08/21 14:48:50;;;;;;;3.03;2.80;;;;;;;;;;4973146;28;20198;-58
2022/08/21 14:51:17;;;;;;;3.75;3.10;;;;;;;;;;4972856;28;20255;-57
2022/08/21 14:53:44;;;;;;;3.40;3.10;;;;;;;;;;4989539;28;20202;-57
2022/08/21 14:56:10;;;;;;;5.10;3.25;;;;;;;;;;4972823;28;20175;-57
2022/08/21 14:58:48;;;;;;;3.30;3.00;;;;;;;;;;4988937;28;20606;-58